Latest Weather Observations for Kowen Forest

IDN60801

Issued at 2:52 pm EST Monday 23 September 2019 (issued every 10 minutes, with the page automatically refreshed every 10 minutes)

About weather observations | Map of weather stations | Latest weather observations for NSW | Other Formats
Station Details ID: 250071 Name: KOWEN FOREST (PCS) Lat: -35.31 Lon: 149.32 Height: 720.0 m
Data from the previous 72 hours. | See also: Recent months for locations in New South Wales
Date/Time
EST
Temp
°C
App
Temp
°C
Dew
Point
°C
Rel
Hum
%
Delta-T
°C
Wind Press
QNH
hPa
Press
MSL
hPa
Rain since
9am
mm
Dir  Spd
km/h
Gust
km/h
Spd
kts
Gust
kts
23/02:40pm 9.5 1.4 -0.4 50 4.1 W 32 35 17 19 - - 0.6
23/02:30pm 9.8 2.4 -0.5 48 4.3 W 28 33 15 18 - - 0.6
23/02:20pm 10.1 2.7 -0.7 47 4.5 W 28 33 15 18 - - 0.6
23/02:10pm 9.6 1.4 -0.9 48 4.3 W 32 35 17 19 - - 0.6
23/02:00pm 11.0 3.2 -0.9 43 4.9 W 30 37 16 20 - - 0.6
23/01:50pm 10.7 2.6 -0.1 47 4.6 W 32 37 17 20 - - 0.6
23/01:40pm 10.5 1.9 0.4 49 4.3 W 35 41 19 22 - - 0.6
23/01:30pm 10.0 0.2 0.0 50 4.2 W 41 46 22 25 - - 0.6
23/01:20pm 10.1 0.8 0.7 52 4.0 W 39 44 21 24 - - 0.6
23/01:10pm 10.1 0.9 1.0 53 3.9 W 39 44 21 24 - - 0.6
23/01:00pm 9.9 0.6 0.5 52 4.0 W 39 41 21 22 - - 0.6
23/12:50pm 9.8 1.0 1.4 56 3.6 W 37 44 20 24 - - 0.6
23/12:40pm 9.8 2.7 1.5 56 3.6 W 28 33 15 18 - - 0.6
23/12:30pm 8.9 1.6 2.2 63 2.9 W 30 33 16 18 - - 0.6
23/12:20pm 8.3 1.3 1.9 64 2.8 W 28 35 15 19 - - 0.6
23/12:10pm 8.4 1.6 3.3 70 2.3 W 28 32 15 17 - - 0.6
23/12:00pm 8.6 1.9 3.5 70 2.3 WNW 28 35 15 19 - - 0.6
23/11:50am 8.4 1.7 3.9 73 2.0 WNW 28 35 15 19 - - 0.6
23/11:40am 8.2 0.9 4.4 77 1.7 WNW 32 35 17 19 - - 0.6
23/11:30am 7.6 1.5 4.7 82 1.3 W 26 32 14 17 - - 0.6
23/11:20am 8.3 1.3 4.3 76 1.8 WNW 30 37 16 20 - - 0.4
23/11:10am 9.3 3.2 4.7 73 2.1 W 26 32 14 17 - - 0.2
23/11:00am 8.4 3.6 4.7 77 1.7 WNW 19 26 10 14 - - 0.2
23/10:50am 7.3 0.6 3.7 78 1.6 WNW 28 37 15 20 - - 0.2
23/10:40am 9.1 3.0 3.0 65 2.7 W 24 33 13 18 - - 0.0
23/10:30am 9.5 2.8 1.3 56 3.5 W 26 30 14 16 - - 0.0
23/10:20am 9.7 3.3 1.1 55 3.7 WNW 24 30 13 16 - - 0.0
23/10:10am 10.0 4.1 1.6 56 3.7 WSW 22 26 12 14 - - 0.0
23/10:00am 9.8 4.3 1.8 57 3.5 W 20 24 11 13 - - 0.0
23/09:50am 9.1 3.5 1.3 58 3.4 W 20 24 11 13 - - 0.0
23/09:40am 9.1 2.8 1.3 58 3.4 W 24 32 13 17 - - 0.0
23/09:30am 9.6 2.5 1.1 55 3.7 W 28 32 15 17 - - 0.0
23/09:20am 9.9 4.0 1.6 56 3.6 W 22 30 12 16 - - 0.0
23/09:10am 9.4 3.9 1.6 58 3.4 W 20 28 11 15 - - 0.0
23/09:00am 9.3 3.4 1.6 58 3.3 W 22 30 12 16 - - 0.0
23/08:50am 8.5 2.6 1.4 61 3.0 WNW 22 24 12 13 - - 0.0
23/08:40am 8.9 3.3 1.4 59 3.2 WNW 20 24 11 13 - - 0.0
23/08:30am 9.0 4.0 1.2 58 3.3 W 17 20 9 11 - - 0.0
23/08:20am 8.5 3.4 0.7 58 3.3 W 17 20 9 11 - - 0.0
23/08:10am 8.1 3.4 1.2 62 2.9 W 15 20 8 11 - - 0.0
23/08:00am 8.4 2.8 1.0 59 3.1 WSW 20 24 11 13 - - 0.0
23/07:50am 8.2 2.6 1.1 61 3.0 WSW 20 26 11 14 - - 0.0
23/07:40am 8.0 2.4 1.0 61 3.0 W 20 24 11 13 - - 0.0
23/07:30am 7.6 2.2 1.3 64 2.7 W 19 22 10 12 - - 0.0
23/07:20am 7.1 2.0 0.7 64 2.7 W 17 19 9 10 - - 0.0
23/07:10am 6.2 1.8 0.4 66 2.4 WNW 13 15 7 8 - - 0.0
23/07:00am 4.3 1.0 -0.1 73 1.7 NNW 7 13 4 7 - - 0.0
23/06:50am 2.5 -0.1 0.7 88 0.7 N 4 4 2 2 - - 0.0
23/06:40am 1.4 -1.3 0.2 92 0.5 NNE 4 6 2 3 - - 0.0
23/06:30am 0.6 -1.8 -0.3 94 0.3 N 2 2 1 1 - - 0.0
23/06:20am 0.1 -2.3 -0.6 95 0.3 S 2 4 1 2 - - 0.0
23/06:10am -0.2 -3.4 -0.8 96 0.2 SW 6 7 3 4 - - 0.0
23/06:00am 0.0 -2.8 -0.5 96 0.2 S 4 6 2 3 - - 0.0
23/05:50am -0.2 -2.7 -0.7 96 0.2 E 2 4 1 2 - - 0.0
23/05:40am -0.4 -3.3 -0.8 97 0.1 E 4 4 2 2 - - 0.0
23/05:30am -0.8 -3.3 -1.3 96 0.1 ENE 2 4 1 2 - - 0.0
23/05:20am -1.0 -3.2 -1.5 96 0.1 CALM 0 2 0 1 - - 0.0
23/05:10am -1.4 -3.6 -1.8 97 0.1 CALM 0 2 0 1 - - 0.0
23/05:00am -1.6 -4.3 -2.2 96 0.1 NE 2 2 1 1 - - 0.0
23/04:50am -1.7 -4.8 -2.3 96 0.1 NE 4 4 2 2 - - 0.0
23/04:40am -1.4 -4.4 -2.1 95 0.2 NE 4 4 2 2 - - 0.0
23/04:30am -1.3 -3.9 -1.9 96 0.2 NE 2 4 1 2 - - 0.0
23/04:20am -1.1 -3.7 -1.8 95 0.2 ENE 2 2 1 1 - - 0.0
23/04:10am -1.0 -3.6 -1.6 96 0.2 S 2 4 1 2 - - 0.0
23/04:00am -0.8 -3.4 -1.4 96 0.2 SE 2 4 1 2 - - 0.0
23/03:50am -0.6 -3.1 -1.2 96 0.2 ENE 2 2 1 1 - - 0.0
23/03:40am -0.7 -3.2 -1.3 96 0.2 NE 2 4 1 2 - - 0.0
23/03:30am -0.6 -3.1 -1.2 96 0.2 NE 2 2 1 1 - - 0.0
23/03:20am -0.7 -3.2 -1.2 96 0.1 E 2 2 1 1 - - 0.0
23/03:10am -0.7 -3.2 -1.2 96 0.1 S 2 2 1 1 - - 0.0
23/03:00am -0.5 -3.0 -1.0 96 0.2 ESE 2 4 1 2 - - 0.0
23/02:50am -0.6 -3.1 -1.1 96 0.2 SSE 2 2 1 1 - - 0.0
23/02:40am -0.5 -3.0 -1.1 96 0.2 S 2 2 1 1 - - 0.0
23/02:30am -0.4 -2.9 -0.9 96 0.2 S 2 4 1 2 - - 0.0
23/02:20am -0.5 -3.0 -1.1 96 0.2 E 2 2 1 1 - - 0.0
23/02:10am -0.3 -2.8 -0.9 96 0.2 ESE 2 2 1 1 - - 0.0
23/02:00am -0.4 -2.9 -1.0 96 0.2 SW 2 2 1 1 - - 0.0
23/01:50am 0.0 -2.4 -0.6 96 0.2 SE 2 2 1 1 - - 0.0
23/01:40am -0.4 -3.3 -1.1 95 0.2 ENE 4 4 2 2 - - 0.0
23/01:30am -0.4 -3.3 -1.2 94 0.3 NE 4 4 2 2 - - 0.0
23/01:20am 0.1 -2.4 -0.7 94 0.3 ENE 2 2 1 1 - - 0.0
23/01:10am 0.2 -2.3 -0.7 94 0.3 S 2 2 1 1 - - 0.0
23/01:00am 0.4 -2.4 -0.6 93 0.4 S 4 4 2 2 - - 0.0
23/12:50am 1.0 -1.4 -0.3 91 0.5 SE 2 4 1 2 - - 0.0
23/12:40am 1.4 -1.3 0.0 90 0.5 ENE 4 6 2 3 - - 0.0
23/12:30am 1.0 -2.3 0.1 94 0.3 NE 7 7 4 4 - - 0.0
23/12:20am 0.5 -2.9 -0.3 94 0.3 NE 7 9 4 5 - - 0.0
23/12:10am 0.0 -3.2 -0.8 94 0.3 NE 6 9 3 5 - - 0.0
23/12:00am 0.2 -3.0 -0.8 93 0.4 NE 6 7 3 4 - - 0.0
 
Date/Time
EST
Temp
°C
App
Temp
°C
Dew
Point
°C
Rel
Hum
%
Delta-T
°C
Wind Press
QNH
hPa
Press
MSL
hPa
Rain since
9am
mm
Dir  Spd
km/h
Gust
km/h
Spd
kts
Gust
kts
22/11:50pm 0.3 -2.5 -0.6 94 0.4 NE 4 6 2 3 - - 0.0
22/11:40pm 0.7 -1.7 -0.3 93 0.4 NE 2 2 1 1 - - 0.0
22/11:30pm 1.0 -1.8 -0.2 92 0.5 NE 4 4 2 2 - - 0.0
22/11:20pm 1.3 -1.9 -0.2 90 0.6 NE 6 7 3 4 - - 0.0
22/11:10pm 1.3 -2.0 0.0 91 0.5 NE 7 9 4 5 - - 0.0
22/11:00pm 1.4 -1.3 0.2 92 0.5 NE 4 6 2 3 - - 0.0
22/10:50pm 1.5 -0.8 0.1 90 0.5 E 2 4 1 2 - - 0.0
22/10:40pm 2.0 -0.7 0.2 88 0.7 NE 4 6 2 3 - - 0.0
22/10:30pm 1.9 -1.2 0.4 90 0.6 ENE 6 6 3 3 - - 0.0
22/10:20pm 2.2 -0.5 0.3 87 0.7 NE 4 6 2 3 - - 0.0
22/10:10pm 2.4 0.1 0.4 87 0.8 NE 2 4 1 2 - - 0.0
22/10:00pm 3.1 0.5 0.9 85 0.9 NE 4 6 2 3 - - 0.0
22/09:50pm 3.9 1.3 1.0 81 1.2 NE 4 6 2 3 - - 0.0
22/09:40pm 3.9 1.3 1.2 82 1.1 NE 4 4 2 2 - - 0.0
22/09:30pm 4.6 1.9 0.6 75 1.6 NE 4 4 2 2 - - 0.0
22/09:20pm 4.9 2.3 0.8 75 1.7 NE 4 6 2 3 - - 0.0
22/09:10pm 5.0 2.4 0.7 74 1.7 NE 4 4 2 2 - - 0.0
22/09:00pm 5.5 3.3 0.8 72 1.9 ESE 2 2 1 1 - - 0.0
22/08:50pm 5.4 3.1 0.7 72 1.9 N 2 6 1 3 - - 0.0
22/08:40pm 5.7 3.1 0.7 70 2.0 N 4 6 2 3 - - 0.0
22/08:30pm 6.3 3.6 0.6 67 2.3 N 4 6 2 3 - - 0.0
22/08:20pm 6.4 3.4 0.6 66 2.4 NNE 6 6 3 3 - - 0.0
22/08:00pm 7.0 3.9 1.1 66 2.5 NW 7 7 4 4 - - 0.0
22/07:50pm 7.6 4.1 1.1 63 2.7 NW 9 9 5 5 - - 0.0
22/07:40pm 8.0 4.4 0.8 60 3.0 WNW 9 9 5 5 - - 0.0
22/07:30pm 8.4 4.8 0.9 59 3.2 WNW 9 11 5 6 - - 0.0
22/07:20pm 9.0 5.1 1.0 57 3.4 WNW 11 11 6 6 - - 0.0
22/07:10pm 9.6 5.6 0.5 53 3.9 WNW 11 13 6 7 - - 0.0
22/07:00pm 9.9 5.1 0.3 51 4.1 WNW 15 17 8 9 - - 0.0
22/06:50pm 10.1 5.3 0.4 51 4.1 W 15 17 8 9 - - 0.0
22/06:40pm 10.3 5.6 0.7 51 4.1 W 15 17 8 9 - - 0.0
22/06:30pm 10.4 5.7 0.8 51 4.1 W 15 17 8 9 - - 0.0
22/06:20pm 10.7 6.0 0.8 50 4.3 W 15 20 8 11 - - 0.0
22/06:10pm 11.1 5.3 0.2 47 4.7 W 20 24 11 13 - - 0.0
22/06:00pm 11.4 4.5 0.3 46 4.8 WNW 26 30 14 16 - - 0.0
22/05:50pm 11.7 5.6 0.7 47 4.8 W 22 28 12 15 - - 0.0
22/05:40pm 12.1 6.0 0.3 44 5.1 W 22 30 12 16 - - 0.0
22/05:30pm 12.5 6.8 0.7 44 5.2 WNW 20 24 11 13 - - 0.0
22/05:20pm 12.5 6.7 0.0 42 5.4 WNW 20 28 11 15 - - 0.0
22/05:10pm 12.1 6.0 0.1 43 5.2 WNW 22 24 12 13 - - 0.0
22/05:00pm 12.2 5.6 -0.1 42 5.3 WNW 24 28 13 15 - - 0.0
22/04:50pm 12.4 5.7 -0.8 40 5.6 NW 24 30 13 16 - - 0.0
22/04:40pm 12.7 5.9 -1.7 37 6.0 NW 24 28 13 15 - - 0.0
22/04:30pm 12.9 6.1 -1.5 37 6.0 NW 24 28 13 15 - - 0.0
22/04:20pm 13.7 8.2 0.5 40 5.8 WNW 19 24 10 13 - - 0.0
22/04:10pm 13.3 7.5 -0.2 39 5.8 NW 20 26 11 14 - - 0.0
22/04:00pm 13.6 8.0 0.2 40 5.9 NW 19 24 10 13 - - 0.0
22/03:50pm 13.7 7.6 0.2 39 5.9 WNW 22 28 12 15 - - 0.0
22/03:40pm 13.7 6.7 -0.2 38 6.0 WNW 26 32 14 17 - - 0.0
22/03:30pm 13.7 6.3 -0.4 38 6.1 WNW 28 32 15 17 - - 0.0
22/03:20pm 13.8 6.1 0.2 39 6.0 WNW 30 35 16 19 - - 0.0
22/03:10pm 13.9 7.0 0.4 39 5.9 WNW 26 28 14 15 - - 0.0
22/03:00pm 13.8 6.7 -0.9 36 6.3 WNW 26 30 14 16 - - 0.0
22/02:50pm 14.0 8.2 0.2 39 6.0 WNW 20 26 11 14 - - 0.0
22/02:40pm 14.0 7.5 0.6 40 5.9 NW 24 28 13 15 - - 0.0
22/02:30pm 13.9 7.5 0.9 41 5.8 NW 24 30 13 16 - - 0.0
22/02:20pm 14.1 7.6 0.2 38 6.1 W 24 30 13 16 - - 0.0
22/02:10pm 14.4 8.3 0.4 38 6.2 WNW 22 32 12 17 - - 0.0
22/02:00pm 14.4 7.3 1.1 40 6.0 NW 28 32 15 17 - - 0.0
22/01:50pm 14.7 8.3 0.8 38 6.2 WNW 24 30 13 16 - - 0.0
22/01:40pm 14.6 8.5 0.2 37 6.3 WNW 22 26 12 14 - - 0.0
22/01:30pm 14.9 8.0 0.3 37 6.5 WNW 26 30 14 16 - - 0.0
22/01:20pm 15.2 9.7 1.7 40 6.2 NW 20 26 11 14 - - 0.0
22/01:10pm 15.3 9.4 1.8 40 6.2 WNW 22 28 12 15 - - 0.0
22/01:00pm 15.4 9.8 1.4 38 6.4 NW 20 28 11 15 - - 0.0
22/12:50pm 14.7 9.1 1.3 40 6.1 WNW 20 30 11 16 - - 0.0
22/12:40pm 14.6 9.1 1.6 41 5.9 WNW 20 24 11 13 - - 0.0
22/12:30pm 14.4 8.8 1.3 41 5.9 WNW 20 26 11 14 - - 0.0
22/12:20pm 14.6 8.8 0.2 37 6.3 WNW 20 26 11 14 - - 0.0
22/12:00pm 14.6 8.9 0.8 39 6.2 W 20 26 11 14 - - 0.0
22/11:50am 14.2 7.6 -0.2 37 6.3 W 24 30 13 16 - - 0.0
22/11:40am 14.6 8.5 0.6 38 6.2 W 22 30 12 16 - - 0.0
22/11:30am 14.0 7.0 -0.4 37 6.2 WNW 26 30 14 16 - - 0.0
22/11:20am 13.8 7.0 0.6 40 5.8 W 26 32 14 17 - - 0.0
22/11:10am 14.1 7.3 1.0 41 5.8 W 26 32 14 17 - - 0.0
22/11:00am 13.4 5.9 1.1 43 5.5 W 30 33 16 18 - - 0.0
22/10:50am 13.6 6.7 2.8 48 5.0 W 28 30 15 16 - - 0.0
22/10:40am 13.6 7.0 2.1 45 5.2 W 26 32 14 17 - - 0.0
22/10:30am 13.3 7.0 1.6 45 5.3 WNW 24 28 13 15 - - 0.0
22/10:20am 12.9 5.4 1.4 45 5.1 WNW 30 33 16 18 - - 0.0
22/10:00am 12.5 5.4 1.6 47 4.9 W 28 33 15 18 - - 0.0
22/09:50am 12.3 5.8 2.5 51 4.5 W 26 33 14 18 - - 0.0
22/09:40am 12.3 6.6 2.9 52 4.3 W 22 24 12 13 - - 0.0
22/09:30am 12.2 6.1 2.6 52 4.4 W 24 32 13 17 - - 0.0
22/09:20am 12.3 6.9 2.4 51 4.5 W 20 28 11 15 - - 0.0
22/09:10am 12.1 5.4 1.7 49 4.6 W 26 32 14 17 - - 0.0
22/09:00am 12.0 6.0 1.1 47 4.8 WSW 22 28 12 15 - - 2.4
22/08:50am 11.8 6.0 2.1 51 4.3 W 22 26 12 14 - - 2.4
22/08:40am 11.5 5.8 2.6 54 4.0 W 22 30 12 16 - - 2.4
22/08:30am 11.4 6.2 2.2 53 4.1 W 19 24 10 13 - - 2.4
22/08:20am 11.2 6.1 2.8 56 3.8 W 19 22 10 12 - - 2.4
22/08:10am 10.8 5.6 2.6 57 3.7 W 19 20 10 11 - - 2.4
22/08:00am 10.6 5.5 2.8 58 3.5 WNW 19 20 10 11 - - 2.4
22/07:50am 10.4 5.8 3.5 62 3.2 W 17 22 9 12 - - 2.4
22/07:40am 10.2 5.9 3.1 61 3.2 W 15 17 8 9 - - 2.4
22/07:30am 9.7 4.9 2.7 61 3.1 W 17 22 9 12 - - 2.4
22/07:20am 9.4 4.3 3.0 64 2.9 W 19 22 10 12 - - 2.4
22/07:10am 9.2 4.3 2.3 62 3.0 W 17 20 9 11 - - 2.4
22/07:00am 9.0 4.8 1.8 60 3.1 WNW 13 15 7 8 - - 2.4
22/06:50am 8.7 5.0 2.5 65 2.7 WNW 11 15 6 8 - - 2.4
22/06:40am 8.2 4.4 2.0 65 2.7 NW 11 13 6 7 - - 2.4
22/06:30am 7.9 4.1 1.6 64 2.7 NW 11 13 6 7 - - 2.4
22/06:20am 7.9 4.1 2.0 66 2.5 WNW 11 15 6 8 - - 2.4
22/06:10am 8.1 3.9 1.9 65 2.7 W 13 15 7 8 - - 2.4
22/06:00am 8.2 4.0 1.6 63 2.8 WNW 13 13 7 7 - - 2.4
22/05:50am 8.3 4.2 2.1 65 2.7 WNW 13 17 7 9 - - 2.4
22/05:40am 8.3 3.8 2.1 65 2.7 WNW 15 17 8 9 - - 2.4
22/05:30am 8.5 4.1 2.5 66 2.6 W 15 19 8 10 - - 2.4
22/05:20am 8.6 3.4 2.3 64 2.8 W 19 19 10 10 - - 2.4
22/05:10am 8.7 3.9 2.6 65 2.7 WNW 17 19 9 10 - - 2.4
22/05:00am 8.7 4.0 2.9 67 2.6 WNW 17 19 9 10 - - 2.4
22/04:50am 8.7 3.7 3.5 70 2.3 WNW 19 20 10 11 - - 2.4
22/04:40am 8.8 4.3 4.0 72 2.2 W 17 19 9 10 - - 2.4
22/04:30am 8.9 4.4 4.2 72 2.2 W 17 19 9 10 - - 2.4
22/04:20am 9.0 4.5 4.4 73 2.1 WNW 17 17 9 9 - - 2.4
22/04:10am 9.0 4.6 4.7 74 2.0 WNW 17 19 9 10 - - 2.4
22/04:00am 8.9 4.9 5.0 76 1.8 WNW 15 17 8 9 - - 2.4
22/03:50am 8.9 5.0 5.4 79 1.6 WNW 15 17 8 9 - - 2.4
22/03:40am 8.9 5.0 5.5 79 1.6 W 15 17 8 9 - - 2.4
22/03:30am 8.9 5.5 5.9 81 1.4 NW 13 15 7 8 - - 2.4
22/03:20am 8.9 5.2 6.1 82 1.3 NW 15 17 8 9 - - 2.4
22/03:10am 9.0 5.4 6.6 85 1.2 NW 15 17 8 9 - - 2.4
22/03:00am 9.0 5.4 6.7 85 1.1 NW 15 17 8 9 - - 2.4
22/02:50am 9.1 5.5 6.7 85 1.2 WNW 15 17 8 9 - - 2.4
22/02:40am 8.8 5.6 6.8 87 1.0 WNW 13 15 7 8 - - 2.4
22/02:30am 8.9 5.8 7.1 88 0.9 NW 13 13 7 7 - - 2.4
22/02:20am 8.9 5.8 7.2 89 0.8 NW 13 15 7 8 - - 2.4
22/02:10am 9.1 6.4 7.5 90 0.8 NW 11 13 6 7 - - 2.4
22/02:00am 9.4 6.7 7.5 88 0.9 NW 11 13 6 7 - - 2.4
22/01:50am 9.8 6.8 7.6 86 1.1 NW 13 15 7 8 - - 2.4
22/01:40am 10.3 6.9 7.7 84 1.3 WNW 15 17 8 9 - - 2.4
22/01:30am 10.7 6.8 7.1 78 1.8 WNW 17 22 9 12 - - 2.4
22/01:20am 10.6 7.5 7.3 80 1.6 NW 13 15 7 8 - - 2.2
22/01:10am 10.8 7.8 7.5 80 1.7 WNW 13 15 7 8 - - 2.2
22/01:00am 10.9 7.8 7.4 79 1.7 WNW 13 15 7 8 - - 2.2
22/12:50am 10.9 7.9 7.6 80 1.7 WNW 13 15 7 8 - - 2.2
22/12:40am 10.9 7.5 7.7 80 1.6 WNW 15 15 8 8 - - 2.2
22/12:30am 10.9 7.7 8.3 84 1.3 WNW 15 17 8 9 - - 2.2
22/12:20am 11.0 7.8 8.5 84 1.3 W 15 17 8 9 - - 2.2
22/12:10am 10.9 7.8 8.7 86 1.1 W 15 15 8 8 - - 2.2
22/12:00am 11.1 8.0 8.7 85 1.2 W 15 17 8 9 - - 2.2
 
Date/Time
EST
Temp
°C
App
Temp
°C
Dew
Point
°C
Rel
Hum
%
Delta-T
°C
Wind Press
QNH
hPa
Press
MSL
hPa
Rain since
9am
mm
Dir  Spd
km/h
Gust
km/h
Spd
kts
Gust
kts
21/11:50pm 11.2 8.1 8.8 85 1.2 W 15 17 8 9 - - 2.2
21/11:40pm 11.2 8.1 8.8 85 1.2 W 15 17 8 9 - - 2.2
21/11:30pm 11.6 8.5 8.7 82 1.5 W 15 15 8 8 - - 2.2
21/11:20pm 11.7 8.6 8.7 82 1.5 W 15 17 8 9 - - 2.2
21/11:10pm 11.8 8.7 8.7 81 1.6 W 15 17 8 9 - - 2.2
21/11:00pm 11.9 8.4 8.7 81 1.7 W 17 19 9 10 - - 2.2
21/10:50pm 12.0 8.5 8.9 81 1.6 W 17 19 9 10 - - 2.2
21/10:40pm 12.0 8.9 8.9 81 1.6 W 15 19 8 10 - - 2.2
21/10:30pm 12.0 9.8 9.3 83 1.4 W 11 15 6 8 - - 2.2
21/10:20pm 11.9 9.8 9.7 86 1.2 W 11 15 6 8 - - 2.2
21/10:10pm 12.0 9.4 9.4 84 1.4 W 13 15 7 8 - - 2.2
21/10:00pm 12.4 10.6 9.3 81 1.6 W 9 11 5 6 - - 2.2
21/09:50pm 12.7 10.5 9.3 80 1.8 W 11 13 6 7 - - 2.2
21/09:40pm 13.0 9.6 9.3 78 2.0 W 17 20 9 11 - - 2.2
21/09:30pm 13.2 9.4 9.7 79 1.9 W 20 24 11 13 - - 2.2
21/09:20pm 13.3 9.3 10.5 83 1.5 W 22 26 12 14 - - 2.2
21/09:10pm 13.4 10.5 11.0 85 1.3 W 17 22 9 12 - - 2.2
21/09:00pm 13.8 11.4 11.4 85 1.3 W 15 19 8 10 - - 2.2
21/08:50pm 14.0 11.2 11.3 84 1.5 WNW 17 20 9 11 - - 2.2
21/08:40pm 14.0 11.5 11.1 83 1.6 WNW 15 19 8 10 - - 2.2
21/08:30pm 14.2 11.3 11.0 81 1.8 WNW 17 22 9 12 - - 2.2
21/08:20pm 14.4 11.1 10.9 79 1.9 NW 19 24 10 13 - - 2.2
21/08:10pm 14.5 11.9 10.8 78 2.0 NW 15 19 8 10 - - 2.2
21/08:00pm 14.8 10.9 10.7 76 2.2 NW 22 30 12 16 - - 2.2
21/07:50pm 15.0 11.0 10.6 75 2.4 NW 22 26 12 14 - - 2.2
21/07:40pm 15.2 11.3 10.7 74 2.5 NW 22 28 12 15 - - 2.2
21/07:30pm 15.5 10.3 10.2 70 2.9 NNW 28 32 15 17 - - 2.2
21/07:20pm 15.4 10.2 10.1 70 2.9 NNW 28 33 15 18 - - 2.2
21/07:10pm 14.8 11.2 10.6 76 2.3 NW 20 26 11 14 - - 2.2
21/07:00pm 14.7 11.6 11.5 81 1.8 WNW 19 20 10 11 - - 2.2
21/06:50pm 15.3 12.5 11.4 77 2.2 WNW 17 20 9 11 - - 2.2
21/06:40pm 15.6 12.7 11.0 74 2.5 NW 17 22 9 12 - - 2.2
21/06:30pm 15.7 12.7 10.6 71 2.8 NNW 17 20 9 11 - - 2.2
21/06:20pm 15.7 12.3 10.6 71 2.8 NNW 19 24 10 13 - - 2.2
21/06:10pm 15.8 11.8 10.5 71 2.9 NNW 22 30 12 16 - - 2.2
21/06:00pm 15.8 11.1 10.6 71 2.9 NNW 26 32 14 17 - - 2.2
21/05:50pm 15.9 10.8 10.5 70 3.0 NNW 28 32 15 17 - - 2.2
21/05:40pm 16.0 10.1 10.5 70 3.0 N 32 39 17 21 - - 2.2
21/05:30pm 16.1 10.6 10.4 69 3.1 N 30 35 16 19 - - 2.2
21/05:20pm 16.0 10.9 10.6 70 3.0 N 28 33 15 18 - - 2.2
21/05:10pm 16.1 11.0 10.6 70 3.0 NNW 28 33 15 18 - - 2.2
21/05:00pm 16.0 10.6 10.8 71 2.9 N 30 41 16 22 - - 2.2
21/04:50pm 16.0 10.5 10.5 70 3.0 N 30 35 16 19 - - 2.2
21/04:40pm 16.1 11.0 10.7 70 3.0 N 28 35 15 19 - - 2.2
21/04:30pm 16.0 10.1 10.5 70 3.0 N 32 39 17 21 - - 2.2
21/04:20pm 15.7 11.0 10.6 71 2.8 N 26 37 14 20 - - 2.2
21/04:10pm 15.7 11.9 11.0 73 2.6 NNW 22 28 12 15 - - 2.2
21/04:00pm 15.6 11.1 11.3 75 2.4 NNW 26 33 14 18 - - 2.2
21/03:50pm 15.4 10.7 10.8 74 2.5 NNW 26 32 14 17 - - 2.2
21/03:40pm 15.3 10.3 11.0 75 2.4 NNW 28 35 15 19 - - 2.2
21/03:30pm 15.5 10.2 11.1 75 2.4 NNW 30 37 16 20 - - 2.2
21/03:20pm 15.4 10.4 11.0 75 2.4 N 28 35 15 19 - - 2.2
21/03:10pm 15.1 10.2 11.2 77 2.2 N 28 32 15 17 - - 2.2
21/03:00pm 15.1 10.3 11.7 80 1.9 N 28 32 15 17 - - 2.0
21/02:50pm 14.8 10.3 11.4 80 1.9 N 26 33 14 18 - - 2.0
21/02:40pm 14.5 10.0 11.5 82 1.7 N 26 32 14 17 - - 2.0
21/02:30pm 14.3 9.9 11.7 84 1.4 N 26 33 14 18 - - 2.0
21/02:20pm 14.1 9.7 11.6 85 1.4 N 26 33 14 18 - - 2.0
21/02:00pm 14.0 10.4 11.7 86 1.3 N 22 28 12 15 - - 2.0
21/01:50pm 14.5 10.6 12.2 86 1.3 NNW 24 33 13 18 - - 1.8
21/01:40pm 15.4 11.3 11.4 77 2.2 NW 24 30 13 16 - - 1.4
21/01:30pm 15.5 10.9 11.2 75 2.4 WNW 26 32 14 17 - - 1.2
21/01:20pm 15.6 11.0 10.9 73 2.6 WNW 26 32 14 17 - - 1.2
21/01:10pm 15.4 11.6 11.3 76 2.3 W 22 30 12 16 - - 1.2
21/01:00pm 15.2 13.9 12.5 84 1.5 W 11 17 6 9 - - 1.2
21/12:50pm 15.3 14.9 12.3 82 1.7 NW 6 9 3 5 - - 1.2
21/12:30pm 15.3 14.7 12.3 82 1.7 NNW 7 9 4 5 - - 1.2
21/12:20pm 15.4 14.3 12.0 80 1.9 NNW 9 9 5 5 - - 1.2
21/12:10pm 15.6 14.9 12.0 79 2.0 NNW 7 9 4 5 - - 1.0
21/12:00pm 15.9 14.4 12.0 77 2.2 NW 11 17 6 9 - - 0.6
21/11:50am 16.5 13.3 11.8 74 2.7 NW 20 24 11 13 - - 0.4
21/11:40am 18.1 13.4 10.6 61 4.2 N 26 32 14 17 - - 0.0
21/11:30am 18.8 14.5 9.2 53 5.2 N 22 28 12 15 - - 0.0
21/11:20am 18.4 15.5 9.7 57 4.8 N 15 19 8 10 - - 0.0
21/11:10am 18.0 15.2 10.1 60 4.4 NNW 15 19 8 10 - - 0.0
21/11:00am 18.4 15.2 10.0 58 4.6 NNW 17 20 9 11 - - 0.0
21/10:50am 18.5 15.3 9.9 57 4.7 N 17 20 9 11 - - 0.0
21/10:40am 18.9 15.7 10.1 56 4.9 NNW 17 19 9 10 - - 0.0
21/10:30am 19.3 15.9 9.3 52 5.5 NW 17 20 9 11 - - 0.0
21/10:20am 18.9 15.6 9.5 54 5.1 NW 17 19 9 10 - - 0.0
21/10:10am 18.8 15.9 9.7 55 5.0 NNW 15 22 8 12 - - 0.0
21/10:00am 18.2 13.9 9.3 56 4.8 NNW 22 30 12 16 - - 0.0
21/09:50am 18.2 13.6 9.6 57 4.7 NNW 24 28 13 15 - - 0.0
21/09:40am 18.5 13.0 9.2 54 5.1 NW 28 32 15 17 - - 0.0
21/09:30am 18.9 14.6 9.4 54 5.2 N 22 28 12 15 - - 0.0
21/09:20am 19.0 15.3 10.0 56 5.0 N 20 28 11 15 - - 0.0
21/09:10am 18.5 14.9 9.8 57 4.8 N 19 24 10 13 - - 0.0
21/09:00am 18.0 14.8 10.0 59 4.4 N 17 20 9 11 - - 0.0
21/08:50am 16.8 14.5 10.4 66 3.5 N 13 17 7 9 - - 0.0
21/08:40am 16.7 13.7 10.6 67 3.4 N 17 22 9 12 - - 0.0
21/08:30am 16.9 13.8 10.3 65 3.6 NNE 17 20 9 11 - - 0.0
21/08:20am 16.9 13.9 10.5 66 3.5 NNE 17 20 9 11 - - 0.0
21/08:10am 16.6 14.7 10.5 67 3.4 NE 11 20 6 11 - - 0.0
21/08:00am 15.8 13.8 11.5 75 2.4 ENE 13 15 7 8 - - 0.0
21/07:50am 15.4 13.4 11.6 78 2.1 ENE 13 15 7 8 - - 0.0
21/07:40am 15.0 13.3 11.3 78 2.1 ENE 11 13 6 7 - - 0.0
21/07:30am 14.1 13.9 11.8 86 1.3 NE 4 6 2 3 - - 0.0
21/07:20am 12.7 12.8 11.5 92 0.7 N 2 2 1 1 - - 0.0
21/07:10am 11.8 11.8 11.1 95 0.4 ESE 2 4 1 2 - - 0.0
21/07:00am 11.1 10.9 10.3 95 0.4 WSW 2 4 1 2 - - 0.0
21/06:50am 10.9 10.6 10.1 95 0.4 ENE 2 4 1 2 - - 0.0
21/06:40am 11.0 10.3 10.0 93 0.5 ENE 4 4 2 2 - - 0.0
21/06:30am 11.4 11.2 10.3 93 0.6 ENE 2 2 1 1 - - 0.0
21/06:20am 11.7 11.2 10.6 93 0.6 NE 4 7 2 4 - - 0.0
21/06:10am 11.9 11.0 10.8 93 0.6 NE 6 7 3 4 - - 0.0
21/06:00am 12.1 11.2 10.8 92 0.7 NE 6 9 3 5 - - 0.0
21/05:50am 12.2 11.3 10.8 91 0.8 NE 6 11 3 6 - - 0.0
21/05:40am 12.2 11.7 10.9 92 0.7 N 4 6 2 3 - - 0.0
21/05:30am 12.4 10.6 11.0 91 0.8 NNE 11 19 6 10 - - 0.0
21/05:20am 12.4 10.6 10.9 90 0.8 NNE 11 15 6 8 - - 0.0
21/05:10am 12.2 10.4 11.0 92 0.7 NE 11 15 6 8 - - 0.0
21/05:00am 12.1 10.7 10.9 92 0.6 NE 9 11 5 6 - - 0.0
21/04:50am 12.0 10.6 10.9 93 0.6 NE 9 11 5 6 - - 0.0
21/04:40am 12.1 10.7 10.8 92 0.7 NE 9 13 5 7 - - 0.0
21/04:30am 12.2 11.1 10.8 91 0.8 NE 7 9 4 5 - - 0.0
21/04:20am 12.4 11.3 10.8 90 0.9 NE 7 9 4 5 - - 0.0
21/04:10am 12.5 11.5 10.9 90 0.9 NE 7 9 4 5 - - 0.0
21/04:00am 12.6 11.2 10.9 89 0.9 NE 9 11 5 6 - - 0.0
21/03:50am 12.7 10.9 10.9 89 1.0 NE 11 15 6 8 - - 0.0
21/03:40am 12.9 11.1 10.9 88 1.1 NE 11 13 6 7 - - 0.0
21/03:30am 12.9 11.5 11.0 88 1.0 NE 9 11 5 6 - - 0.0
21/03:20am 13.0 10.9 11.0 88 1.1 NE 13 15 7 8 - - 0.0
21/03:10am 12.9 10.4 11.0 88 1.0 NE 15 17 8 9 - - 0.0
21/03:00am 13.0 10.5 11.0 88 1.1 NE 15 20 8 11 - - 0.0
21/02:50am 13.1 11.0 11.0 87 1.1 NE 13 17 7 9 - - 0.0
21/02:40am 13.1 11.0 11.1 88 1.1 NE 13 17 7 9 - - 0.0
21/02:30am 13.0 11.7 11.2 89 1.0 NE 9 11 5 6 - - 0.0
21/02:20am 13.1 11.8 11.2 88 1.0 NNE 9 13 5 7 - - 0.0
21/02:10am 13.1 11.4 11.2 88 1.0 NNE 11 15 6 8 - - 0.0
21/02:00am 13.2 10.8 11.3 88 1.0 NE 15 19 8 10 - - 0.0
21/01:50am 13.3 10.8 11.2 87 1.2 NE 15 17 8 9 - - 0.0
21/01:40am 13.3 11.6 11.2 87 1.2 NE 11 15 6 8 - - 0.0
21/01:30am 13.4 12.1 11.2 86 1.2 NNE 9 11 5 6 - - 0.0
21/01:20am 13.4 12.1 11.3 87 1.2 NNE 9 13 5 7 - - 0.0
21/01:10am 13.4 11.7 11.3 87 1.2 NNE 11 17 6 9 - - 0.0
21/01:00am 13.5 10.7 11.3 86 1.2 NE 17 20 9 11 - - 0.0
21/12:50am 13.5 10.7 11.2 86 1.3 NE 17 22 9 12 - - 0.0
21/12:40am 13.5 11.4 11.2 86 1.3 NE 13 19 7 10 - - 0.0
21/12:30am 13.5 10.7 11.3 86 1.2 NE 17 20 9 11 - - 0.0
21/12:20am 13.6 10.4 11.3 86 1.3 NNE 19 24 10 13 - - 0.0
21/12:10am 13.6 10.2 11.3 86 1.3 NE 20 24 11 13 - - 0.0
21/12:00am 13.6 9.4 11.2 85 1.3 NE 24 32 13 17 - - 0.0
 
Date/Time
EST
Temp
°C
App
Temp
°C
Dew
Point
°C
Rel
Hum
%
Delta-T
°C
Wind Press
QNH
hPa
Press
MSL
hPa
Rain since
9am
mm
Dir  Spd
km/h
Gust
km/h
Spd
kts
Gust
kts
20/11:50pm 13.6 8.7 11.2 85 1.3 NE 28 33 15 18 - - 0.0
20/11:40pm 13.6 7.9 11.2 85 1.3 NE 32 33 17 18 - - 0.0
20/11:30pm 13.7 7.8 11.2 85 1.4 NE 33 39 18 21 - - 0.0
20/11:20pm 13.7 7.8 11.2 85 1.4 NE 33 35 18 19 - - 0.0
20/11:10pm 13.6 7.9 11.2 85 1.3 NE 32 35 17 19 - - 0.0
20/11:00pm 13.7 7.8 11.3 85 1.3 NE 33 35 18 19 - - 0.0
20/10:50pm 13.7 7.8 11.2 85 1.4 NE 33 35 18 19 - - 0.0
20/10:40pm 13.7 8.0 11.3 85 1.3 NE 32 33 17 18 - - 0.0
20/10:30pm 13.8 8.5 11.3 85 1.4 NE 30 35 16 19 - - 0.0
20/10:20pm 13.7 8.8 11.3 85 1.3 NE 28 33 15 18 - - 0.0
20/10:10pm 13.6 9.8 11.3 86 1.3 NE 22 26 12 14 - - 0.0
20/10:00pm 13.7 10.3 11.4 86 1.3 NNE 20 24 11 13 - - 0.0
20/09:50pm 13.7 10.9 11.4 86 1.3 NNE 17 22 9 12 - - 0.0
20/09:40pm 13.6 10.3 11.5 87 1.2 NNE 20 28 11 15 - - 0.0
20/09:30pm 13.7 9.6 11.5 86 1.2 NE 24 26 13 14 - - 0.0
20/09:20pm 13.7 10.0 11.6 87 1.2 NE 22 28 12 15 - - 0.0
20/09:10pm 13.8 10.1 11.6 86 1.2 NE 22 24 12 13 - - 0.0
20/09:00pm 13.8 9.8 11.7 87 1.2 NE 24 26 13 14 - - 0.0
20/08:50pm 13.9 9.5 11.7 86 1.2 NE 26 28 14 15 - - 0.0
20/08:40pm 14.0 9.6 11.6 85 1.3 NE 26 30 14 16 - - 0.0
20/08:30pm 14.1 9.2 11.4 84 1.5 NE 28 30 15 16 - - 0.0
20/08:20pm 14.2 9.6 11.2 82 1.7 ENE 26 30 14 16 - - 0.0
20/08:10pm 14.4 9.8 11.1 80 1.8 NE 26 28 14 15 - - 0.0
20/08:00pm 14.6 10.0 10.9 78 2.0 NE 26 32 14 17 - - 0.0
20/07:50pm 14.8 10.1 10.8 77 2.2 NE 26 30 14 16 - - 0.0
20/07:40pm 15.1 10.0 10.7 75 2.4 NE 28 32 15 17 - - 0.0
20/07:30pm 15.3 10.6 10.6 73 2.6 NE 26 28 14 15 - - 0.0
20/07:20pm 15.4 10.7 10.6 73 2.6 NE 26 30 14 16 - - 0.0
20/07:10pm 15.7 10.9 10.4 71 2.9 NE 26 32 14 17 - - 0.0
20/07:00pm 15.8 11.4 10.3 70 3.0 NE 24 26 13 14 - - 0.0
20/06:50pm 16.0 12.0 10.3 69 3.1 NE 22 26 12 14 - - 0.0
20/06:40pm 16.2 12.2 10.4 68 3.2 NE 22 24 12 13 - - 0.0
20/06:30pm 16.4 12.4 10.3 67 3.3 NE 22 28 12 15 - - 0.0
20/06:20pm 16.5 12.9 10.4 67 3.4 NE 20 24 11 13 - - 0.0
20/06:10pm 16.8 13.2 10.4 66 3.5 NE 20 24 11 13 - - 0.0
20/06:00pm 17.0 13.4 10.4 65 3.6 NE 20 26 11 14 - - 0.0
20/05:50pm 17.3 13.6 10.2 63 3.9 NE 20 22 11 12 - - 0.0
20/05:40pm 17.6 13.9 10.2 62 4.1 NE 20 26 11 14 - - 0.0
20/05:30pm 18.0 13.9 10.2 60 4.3 NE 22 24 12 13 - - 0.0
20/05:20pm 18.5 14.8 10.1 58 4.6 NE 20 24 11 13 - - 0.0
20/05:10pm 18.9 14.7 9.9 56 5.0 NE 22 24 12 13 - - 0.0
20/05:00pm 19.1 15.3 9.9 55 5.1 NE 20 26 11 14 - - 0.0
20/04:50pm 19.3 15.5 9.8 54 5.2 NE 20 24 11 13 - - 0.0
20/04:40pm 18.8 15.0 9.8 56 5.0 NE 20 24 11 13 - - 0.0
20/04:30pm 19.3 15.6 10.1 55 5.1 NE 20 22 11 12 - - 0.0
20/04:20pm 19.8 15.6 9.6 51 5.6 NE 22 24 12 13 - - 0.0
20/04:10pm 20.0 15.8 9.9 52 5.6 NE 22 28 12 15 - - 0.0
20/04:00pm 19.4 15.7 9.6 53 5.4 NE 19 26 10 14 - - 0.0
20/03:50pm 19.4 15.5 9.6 53 5.4 NE 20 26 11 14 - - 0.0
20/03:40pm 19.8 15.9 9.6 51 5.6 NE 20 28 11 15 - - 0.0
20/03:30pm 19.8 15.6 9.6 51 5.6 NE 22 24 12 13 - - 0.0
20/03:20pm 20.0 16.2 9.7 51 5.7 ENE 20 28 11 15 - - 0.0
20/03:10pm 19.8 15.6 9.7 52 5.6 ENE 22 24 12 13 - - 0.0
20/03:00pm 19.5 15.9 9.7 53 5.4 NE 19 22 10 12 - - 0.0

Other formats

Comma delimited format used in spreadsheet applications
http://www.bom.gov.au/fwo/IDN60801/IDN60801.99764.axf

JavaScript Object Notation format (JSON) in row-major order
http://www.bom.gov.au/fwo/IDN60801/IDN60801.99764.json

Data quality

Most of these data are generated automatically and are frequently updated. Quality checks on data are not normally performed. It is possible for incorrect values to appear. Refer to information at About Latest Weather Observations and please check the disclaimer before using these data.